sensor_id;sensor_type;location;lat;lon;timestamp;pressure;altitude;pressure_sealevel;temperature;humidity
47967;BME280;33733;52.456;13.620;2024-02-15T00:00:22;101494.03;;;9.59;82.42
47967;BME280;33733;52.456;13.620;2024-02-15T00:02:49;101483.31;;;9.62;82.19
47967;BME280;33733;52.456;13.620;2024-02-15T00:05:16;101496.56;;;9.60;82.30
47967;BME280;33733;52.456;13.620;2024-02-15T00:07:44;101486.19;;;9.57;82.42
47967;BME280;33733;52.456;13.620;2024-02-15T00:10:11;101481.94;;;9.55;82.51
47967;BME280;33733;52.456;13.620;2024-02-15T00:12:38;101484.38;;;9.42;82.78
47967;BME280;33733;52.456;13.620;2024-02-15T00:15:06;101478.34;;;9.56;82.89
47967;BME280;33733;52.456;13.620;2024-02-15T00:17:33;101476.34;;;9.61;82.80
47967;BME280;33733;52.456;13.620;2024-02-15T00:20:03;101481.16;;;9.53;82.56
47967;BME280;33733;52.456;13.620;2024-02-15T00:22:36;101482.03;;;9.53;82.94
47967;BME280;33733;52.456;13.620;2024-02-15T00:25:04;101481.09;;;9.54;82.79
47967;BME280;33733;52.456;13.620;2024-02-15T00:27:32;101482.88;;;9.54;82.68
47967;BME280;33733;52.456;13.620;2024-02-15T00:30:02;101478.63;;;9.51;82.84
47967;BME280;33733;52.456;13.620;2024-02-15T00:32:30;101475.44;;;9.44;83.34
47967;BME280;33733;52.456;13.620;2024-02-15T00:34:58;101480.19;;;9.38;83.36
47967;BME280;33733;52.456;13.620;2024-02-15T00:37:25;101477.69;;;9.52;82.94
47967;BME280;33733;52.456;13.620;2024-02-15T00:39:53;101473.22;;;9.37;83.17
47967;BME280;33733;52.456;13.620;2024-02-15T00:42:20;101470.34;;;9.41;83.54
47967;BME280;33733;52.456;13.620;2024-02-15T00:44:50;101477.06;;;9.31;83.95
47967;BME280;33733;52.456;13.620;2024-02-15T00:47:17;101478.25;;;9.41;83.65
47967;BME280;33733;52.456;13.620;2024-02-15T00:49:47;101484.00;;;9.32;83.93
47967;BME280;33733;52.456;13.620;2024-02-15T00:52:17;101490.22;;;9.31;83.98
47967;BME280;33733;52.456;13.620;2024-02-15T00:54:47;101491.44;;;9.24;84.15
47967;BME280;33733;52.456;13.620;2024-02-15T00:57:14;101490.78;;;9.36;84.06
47967;BME280;33733;52.456;13.620;2024-02-15T00:59:41;101487.72;;;9.28;84.46
47967;BME280;33733;52.456;13.620;2024-02-15T01:02:09;101484.59;;;9.37;84.42
47967;BME280;33733;52.456;13.620;2024-02-15T01:04:36;101487.88;;;9.25;84.33
47967;BME280;33733;52.456;13.620;2024-02-15T01:07:03;101481.91;;;9.39;84.35
47967;BME280;33733;52.456;13.620;2024-02-15T01:09:30;101476.78;;;9.36;84.25
47967;BME280;33733;52.456;13.620;2024-02-15T01:11:58;101477.97;;;9.30;84.43
47967;BME280;33733;52.456;13.620;2024-02-15T01:14:25;101482.44;;;9.28;84.30
47967;BME280;33733;52.456;13.620;2024-02-15T01:16:57;101486.56;;;9.34;84.49
47967;BME280;33733;52.456;13.620;2024-02-15T01:19:24;101474.84;;;9.39;84.28
47967;BME280;33733;52.456;13.620;2024-02-15T01:21:51;101478.13;;;9.27;84.85
47967;BME280;33733;52.456;13.620;2024-02-15T01:24:20;101477.88;;;9.32;84.78
47967;BME280;33733;52.456;13.620;2024-02-15T01:26:49;101474.41;;;9.31;84.87
47967;BME280;33733;52.456;13.620;2024-02-15T01:29:16;101469.28;;;9.28;85.22
47967;BME280;33733;52.456;13.620;2024-02-15T01:31:43;101470.25;;;9.27;85.16
47967;BME280;33733;52.456;13.620;2024-02-15T01:34:11;101468.69;;;9.23;85.27
47967;BME280;33733;52.456;13.620;2024-02-15T01:36:38;101473.56;;;9.31;85.18
47967;BME280;33733;52.456;13.620;2024-02-15T01:39:06;101475.84;;;9.37;85.08
47967;BME280;33733;52.456;13.620;2024-02-15T01:41:33;101477.63;;;9.36;85.23
47967;BME280;33733;52.456;13.620;2024-02-15T01:44:00;101478.13;;;9.27;85.28
47967;BME280;33733;52.456;13.620;2024-02-15T01:46:31;101479.69;;;9.31;85.30
47967;BME280;33733;52.456;13.620;2024-02-15T01:48:59;101473.41;;;9.34;85.16
47967;BME280;33733;52.456;13.620;2024-02-15T01:51:26;101477.34;;;9.25;85.39
47967;BME280;33733;52.456;13.620;2024-02-15T01:53:54;101467.44;;;9.30;85.37
47967;BME280;33733;52.456;13.620;2024-02-15T01:56:22;101468.13;;;9.34;85.41
47967;BME280;33733;52.456;13.620;2024-02-15T01:58:52;101467.72;;;9.41;85.17
47967;BME280;33733;52.456;13.620;2024-02-15T02:01:20;101464.47;;;9.36;85.28
47967;BME280;33733;52.456;13.620;2024-02-15T02:03:48;101464.56;;;9.35;85.38
47967;BME280;33733;52.456;13.620;2024-02-15T02:06:15;101460.91;;;9.37;85.64
47967;BME280;33733;52.456;13.620;2024-02-15T02:08:43;101461.00;;;9.36;85.46
47967;BME280;33733;52.456;13.620;2024-02-15T02:11:10;101463.22;;;9.43;85.29
47967;BME280;33733;52.456;13.620;2024-02-15T02:13:37;101457.81;;;9.47;84.97
47967;BME280;33733;52.456;13.620;2024-02-15T02:16:24;101455.63;;;9.55;84.88
47967;BME280;33733;52.456;13.620;2024-02-15T02:18:51;101456.28;;;9.42;85.53
47967;BME280;33733;52.456;13.620;2024-02-15T02:21:19;101454.56;;;9.41;85.45
47967;BME280;33733;52.456;13.620;2024-02-15T02:23:52;101459.41;;;9.49;85.46
47967;BME280;33733;52.456;13.620;2024-02-15T02:26:21;101455.25;;;9.45;85.47
47967;BME280;33733;52.456;13.620;2024-02-15T02:28:50;101454.56;;;9.41;85.63
47967;BME280;33733;52.456;13.620;2024-02-15T02:31:18;101459.75;;;9.43;85.51
47967;BME280;33733;52.456;13.620;2024-02-15T02:33:52;101450.03;;;9.43;85.66
47967;BME280;33733;52.456;13.620;2024-02-15T02:36:20;101455.47;;;9.40;85.54
47967;BME280;33733;52.456;13.620;2024-02-15T02:38:48;101463.94;;;9.47;85.54
47967;BME280;33733;52.456;13.620;2024-02-15T02:41:18;101457.38;;;9.38;85.91
47967;BME280;33733;52.456;13.620;2024-02-15T02:43:46;101452.41;;;9.32;85.80
47967;BME280;33733;52.456;13.620;2024-02-15T02:46:14;101451.44;;;9.51;85.85
47967;BME280;33733;52.456;13.620;2024-02-15T02:48:41;101449.50;;;9.54;85.52
47967;BME280;33733;52.456;13.620;2024-02-15T02:51:08;101453.69;;;9.41;85.60
47967;BME280;33733;52.456;13.620;2024-02-15T02:53:36;101453.25;;;9.33;86.00
47967;BME280;33733;52.456;13.620;2024-02-15T02:56:03;101457.63;;;9.50;85.63
47967;BME280;33733;52.456;13.620;2024-02-15T02:58:31;101454.22;;;9.48;85.65
47967;BME280;33733;52.456;13.620;2024-02-15T03:00:58;101451.75;;;9.44;85.56
47967;BME280;33733;52.456;13.620;2024-02-15T03:03:27;101453.91;;;9.54;85.36
47967;BME280;33733;52.456;13.620;2024-02-15T03:05:55;101455.81;;;9.67;85.05
47967;BME280;33733;52.456;13.620;2024-02-15T03:08:22;101457.16;;;9.59;84.92
47967;BME280;33733;52.456;13.620;2024-02-15T03:10:51;101457.28;;;9.56;85.03
47967;BME280;33733;52.456;13.620;2024-02-15T03:13:18;101459.63;;;9.62;84.97
47967;BME280;33733;52.456;13.620;2024-02-15T03:15:46;101463.72;;;9.67;84.83
47967;BME280;33733;52.456;13.620;2024-02-15T03:18:15;101460.53;;;9.61;84.94
47967;BME280;33733;52.456;13.620;2024-02-15T03:20:43;101456.81;;;9.65;84.55
47967;BME280;33733;52.456;13.620;2024-02-15T03:23:11;101457.41;;;9.70;84.88
47967;BME280;33733;52.456;13.620;2024-02-15T03:25:38;101453.41;;;9.63;84.88
47967;BME280;33733;52.456;13.620;2024-02-15T03:28:06;101446.94;;;9.68;84.64
47967;BME280;33733;52.456;13.620;2024-02-15T03:30:33;101453.19;;;9.67;84.62
47967;BME280;33733;52.456;13.620;2024-02-15T03:33:03;101456.56;;;9.69;84.56
47967;BME280;33733;52.456;13.620;2024-02-15T03:35:33;101453.25;;;9.66;84.95
47967;BME280;33733;52.456;13.620;2024-02-15T03:38:01;101459.34;;;9.51;84.93
47967;BME280;33733;52.456;13.620;2024-02-15T03:40:28;101454.75;;;9.54;85.48
47967;BME280;33733;52.456;13.620;2024-02-15T03:42:57;101456.38;;;9.57;85.20
47967;BME280;33733;52.456;13.620;2024-02-15T03:45:24;101456.53;;;9.54;85.34
47967;BME280;33733;52.456;13.620;2024-02-15T03:47:54;101454.41;;;9.60;85.34
47967;BME280;33733;52.456;13.620;2024-02-15T03:50:21;101461.19;;;9.49;85.96
47967;BME280;33733;52.456;13.620;2024-02-15T03:52:50;101467.94;;;9.54;85.59
47967;BME280;33733;52.456;13.620;2024-02-15T03:55:18;101470.56;;;9.54;85.58
47967;BME280;33733;52.456;13.620;2024-02-15T03:57:46;101462.72;;;9.53;85.79
47967;BME280;33733;52.456;13.620;2024-02-15T04:00:14;101467.31;;;9.49;85.97
47967;BME280;33733;52.456;13.620;2024-02-15T04:02:42;101459.25;;;9.52;86.03
47967;BME280;33733;52.456;13.620;2024-02-15T04:05:10;101466.59;;;9.63;85.67
47967;BME280;33733;52.456;13.620;2024-02-15T04:07:39;101461.44;;;9.44;86.02
47967;BME280;33733;52.456;13.620;2024-02-15T04:10:07;101462.91;;;9.50;86.27
47967;BME280;33733;52.456;13.620;2024-02-15T04:12:36;101464.19;;;9.58;85.98
47967;BME280;33733;52.456;13.620;2024-02-15T04:15:04;101457.16;;;9.59;85.77
47967;BME280;33733;52.456;13.620;2024-02-15T04:17:38;101456.53;;;9.54;86.12
47967;BME280;33733;52.456;13.620;2024-02-15T04:20:06;101459.44;;;9.65;86.10
47967;BME280;33733;52.456;13.620;2024-02-15T04:22:34;101457.72;;;9.64;86.07
47967;BME280;33733;52.456;13.620;2024-02-15T04:25:05;101458.50;;;9.50;86.13
47967;BME280;33733;52.456;13.620;2024-02-15T04:27:33;101461.22;;;9.64;86.12
47967;BME280;33733;52.456;13.620;2024-02-15T04:30:04;101460.81;;;9.72;86.13
47967;BME280;33733;52.456;13.620;2024-02-15T04:32:32;101460.72;;;9.58;86.22
47967;BME280;33733;52.456;13.620;2024-02-15T04:35:02;101462.25;;;9.77;85.71
47967;BME280;33733;52.456;13.620;2024-02-15T04:37:30;101457.06;;;9.76;85.77
47967;BME280;33733;52.456;13.620;2024-02-15T04:39:59;101455.97;;;9.80;85.65
47967;BME280;33733;52.456;13.620;2024-02-15T04:42:35;101460.81;;;9.72;85.91
47967;BME280;33733;52.456;13.620;2024-02-15T04:45:06;101460.56;;;9.76;85.82
47967;BME280;33733;52.456;13.620;2024-02-15T04:47:38;101453.31;;;9.64;86.11
47967;BME280;33733;52.456;13.620;2024-02-15T04:50:07;101454.00;;;9.68;86.02
47967;BME280;33733;52.456;13.620;2024-02-15T04:52:36;101452.03;;;9.71;85.84
47967;BME280;33733;52.456;13.620;2024-02-15T04:55:04;101447.06;;;9.82;85.75
47967;BME280;33733;52.456;13.620;2024-02-15T04:57:32;101450.38;;;9.86;85.67
47967;BME280;33733;52.456;13.620;2024-02-15T05:00:02;101454.78;;;9.85;85.42
47967;BME280;33733;52.456;13.620;2024-02-15T05:02:37;101456.66;;;9.83;85.49
47967;BME280;33733;52.456;13.620;2024-02-15T05:05:08;101460.13;;;9.84;85.51
47967;BME280;33733;52.456;13.620;2024-02-15T05:07:35;101455.47;;;9.89;85.10
47967;BME280;33733;52.456;13.620;2024-02-15T05:10:07;101458.94;;;9.74;85.08
47967;BME280;33733;52.456;13.620;2024-02-15T05:12:39;101462.19;;;9.95;85.52
47967;BME280;33733;52.456;13.620;2024-02-15T05:15:10;101461.84;;;10.01;84.78
47967;BME280;33733;52.456;13.620;2024-02-15T05:17:40;101469.56;;;10.04;85.16
47967;BME280;33733;52.456;13.620;2024-02-15T05:20:16;101469.50;;;10.05;84.62
47967;BME280;33733;52.456;13.620;2024-02-15T05:22:44;101473.84;;;9.90;85.01
47967;BME280;33733;52.456;13.620;2024-02-15T05:25:19;101466.88;;;9.89;85.00
47967;BME280;33733;52.456;13.620;2024-02-15T05:27:55;101468.03;;;10.00;84.76
47967;BME280;33733;52.456;13.620;2024-02-15T05:30:27;101465.69;;;9.95;84.87
47967;BME280;33733;52.456;13.620;2024-02-15T05:32:54;101470.25;;;9.91;85.23
47967;BME280;33733;52.456;13.620;2024-02-15T05:35:22;101466.00;;;10.05;84.89
47967;BME280;33733;52.456;13.620;2024-02-15T05:37:50;101463.88;;;9.96;85.09
47967;BME280;33733;52.456;13.620;2024-02-15T05:40:20;101462.28;;;9.93;84.99
47967;BME280;33733;52.456;13.620;2024-02-15T05:42:48;101463.19;;;9.92;84.98
47967;BME280;33733;52.456;13.620;2024-02-15T05:47:51;101453.88;;;9.86;85.27
47967;BME280;33733;52.456;13.620;2024-02-15T05:50:18;101460.91;;;9.86;85.63
47967;BME280;33733;52.456;13.620;2024-02-15T05:52:48;101463.63;;;10.00;85.04
47967;BME280;33733;52.456;13.620;2024-02-15T05:55:16;101461.09;;;10.14;85.16
47967;BME280;33733;52.456;13.620;2024-02-15T05:57:44;101469.00;;;10.14;84.68
47967;BME280;33733;52.456;13.620;2024-02-15T06:00:12;101476.66;;;10.34;84.35
47967;BME280;33733;52.456;13.620;2024-02-15T06:02:49;101474.28;;;10.30;84.17
47967;BME280;33733;52.456;13.620;2024-02-15T06:05:18;101475.19;;;10.45;83.74
47967;BME280;33733;52.456;13.620;2024-02-15T06:07:46;101477.78;;;10.30;84.03
47967;BME280;33733;52.456;13.620;2024-02-15T06:10:14;101473.63;;;10.26;83.88
47967;BME280;33733;52.456;13.620;2024-02-15T06:12:42;101476.69;;;10.19;84.34
47967;BME280;33733;52.456;13.620;2024-02-15T06:15:10;101483.06;;;10.30;84.07
47967;BME280;33733;52.456;13.620;2024-02-15T06:17:44;101478.00;;;10.10;84.25
47967;BME280;33733;52.456;13.620;2024-02-15T06:20:15;101467.72;;;10.06;84.31
47967;BME280;33733;52.456;13.620;2024-02-15T06:22:48;101473.94;;;10.20;84.07
47967;BME280;33733;52.456;13.620;2024-02-15T06:25:15;101476.81;;;10.31;83.92
47967;BME280;33733;52.456;13.620;2024-02-15T06:27:47;101477.63;;;10.18;84.14
47967;BME280;33733;52.456;13.620;2024-02-15T06:30:18;101483.91;;;10.31;83.93
47967;BME280;33733;52.456;13.620;2024-02-15T06:33:04;101479.38;;;10.33;84.10
47967;BME280;33733;52.456;13.620;2024-02-15T06:35:50;101491.03;;;10.29;83.56
47967;BME280;33733;52.456;13.620;2024-02-15T06:38:35;101490.28;;;10.27;83.89
47967;BME280;33733;52.456;13.620;2024-02-15T06:41:21;101494.44;;;10.15;84.36
47967;BME280;33733;52.456;13.620;2024-02-15T06:43:52;101496.13;;;10.16;84.53
47967;BME280;33733;52.456;13.620;2024-02-15T06:46:20;101497.16;;;10.29;84.17
47967;BME280;33733;52.456;13.620;2024-02-15T06:48:48;101499.72;;;10.31;83.75
47967;BME280;33733;52.456;13.620;2024-02-15T06:51:15;101506.19;;;10.25;84.47
47967;BME280;33733;52.456;13.620;2024-02-15T06:53:43;101493.41;;;10.49;83.65
47967;BME280;33733;52.456;13.620;2024-02-15T06:56:11;101505.25;;;10.42;83.39
47967;BME280;33733;52.456;13.620;2024-02-15T06:58:39;101503.53;;;10.41;83.34
47967;BME280;33733;52.456;13.620;2024-02-15T07:01:10;101506.41;;;10.36;83.68
47967;BME280;33733;52.456;13.620;2024-02-15T07:03:40;101513.03;;;10.44;84.05
47967;BME280;33733;52.456;13.620;2024-02-15T07:06:07;101516.38;;;10.31;83.88
47967;BME280;33733;52.456;13.620;2024-02-15T07:08:35;101515.78;;;10.42;84.07
47967;BME280;33733;52.456;13.620;2024-02-15T07:11:02;101516.09;;;10.52;83.70
47967;BME280;33733;52.456;13.620;2024-02-15T07:13:30;101510.06;;;10.50;83.92
47967;BME280;33733;52.456;13.620;2024-02-15T07:15:58;101510.31;;;10.61;83.42
47967;BME280;33733;52.456;13.620;2024-02-15T07:18:25;101510.41;;;10.44;83.71
47967;BME280;33733;52.456;13.620;2024-02-15T07:20:56;101510.41;;;10.44;84.01
47967;BME280;33733;52.456;13.620;2024-02-15T07:23:27;101509.97;;;10.35;83.84
47967;BME280;33733;52.456;13.620;2024-02-15T07:25:54;101520.72;;;10.32;84.11
47967;BME280;33733;52.456;13.620;2024-02-15T07:28:21;101525.91;;;10.34;84.03
47967;BME280;33733;52.456;13.620;2024-02-15T07:30:52;101525.91;;;10.34;84.47
47967;BME280;33733;52.456;13.620;2024-02-15T07:33:19;101526.34;;;10.42;84.00
47967;BME280;33733;52.456;13.620;2024-02-15T07:35:48;101525.13;;;10.48;84.03
47967;BME280;33733;52.456;13.620;2024-02-15T07:38:20;101518.41;;;10.58;83.78
47967;BME280;33733;52.456;13.620;2024-02-15T07:40:52;101508.19;;;10.36;84.11
47967;BME280;33733;52.456;13.620;2024-02-15T07:43:20;101511.94;;;10.48;84.37
47967;BME280;33733;52.456;13.620;2024-02-15T07:45:47;101516.09;;;10.52;83.96
47967;BME280;33733;52.456;13.620;2024-02-15T07:48:16;101524.13;;;10.50;83.94
47967;BME280;33733;52.456;13.620;2024-02-15T07:50:44;101520.47;;;10.37;84.22
47967;BME280;33733;52.456;13.620;2024-02-15T07:53:12;101520.53;;;10.51;84.26
47967;BME280;33733;52.456;13.620;2024-02-15T07:55:40;101520.94;;;10.59;84.02
47967;BME280;33733;52.456;13.620;2024-02-15T07:58:09;101521.19;;;10.70;83.62
47967;BME280;33733;52.456;13.620;2024-02-15T08:00:37;101521.94;;;10.72;83.82
47967;BME280;33733;52.456;13.620;2024-02-15T08:03:05;101519.97;;;10.76;83.77
47967;BME280;33733;52.456;13.620;2024-02-15T08:05:32;101523.31;;;10.64;83.61
47967;BME280;33733;52.456;13.620;2024-02-15T08:08:00;101511.41;;;10.57;84.14
47967;BME280;33733;52.456;13.620;2024-02-15T08:10:28;101514.66;;;10.62;83.92
47967;BME280;33733;52.456;13.620;2024-02-15T08:12:58;101519.50;;;10.69;83.48
47967;BME280;33733;52.456;13.620;2024-02-15T08:15:34;101516.88;;;10.83;83.75
47967;BME280;33733;52.456;13.620;2024-02-15T08:20:39;101519.44;;;10.85;83.44
47967;BME280;33733;52.456;13.620;2024-02-15T08:23:07;101519.91;;;10.77;83.46
47967;BME280;33733;52.456;13.620;2024-02-15T08:25:40;101516.31;;;10.78;83.96
47967;BME280;33733;52.456;13.620;2024-02-15T08:28:10;101520.56;;;10.81;83.46
47967;BME280;33733;52.456;13.620;2024-02-15T08:30:38;101522.44;;;10.79;83.82
47967;BME280;33733;52.456;13.620;2024-02-15T08:33:05;101518.97;;;10.78;83.85
47967;BME280;33733;52.456;13.620;2024-02-15T08:35:32;101521.94;;;10.72;84.06
47967;BME280;33733;52.456;13.620;2024-02-15T08:38:00;101527.03;;;10.75;84.20
47967;BME280;33733;52.456;13.620;2024-02-15T08:40:32;101524.47;;;10.90;84.17
47967;BME280;33733;52.456;13.620;2024-02-15T08:42:59;101528.03;;;10.89;84.10
47967;BME280;33733;52.456;13.620;2024-02-15T08:45:27;101533.34;;;10.73;84.55
47967;BME280;33733;52.456;13.620;2024-02-15T08:47:54;101531.59;;;10.88;84.45
47967;BME280;33733;52.456;13.620;2024-02-15T08:50:21;101536.81;;;10.89;84.27
47967;BME280;33733;52.456;13.620;2024-02-15T08:52:50;101530.59;;;10.90;83.87
47967;BME280;33733;52.456;13.620;2024-02-15T08:55:18;101532.91;;;10.80;84.13
47967;BME280;33733;52.456;13.620;2024-02-15T08:57:47;101528.63;;;10.94;84.29
47967;BME280;33733;52.456;13.620;2024-02-15T09:00:14;101526.47;;;11.00;83.98
47967;BME280;33733;52.456;13.620;2024-02-15T09:02:44;101529.59;;;11.07;83.80
47967;BME280;33733;52.456;13.620;2024-02-15T09:05:12;101532.47;;;11.18;83.76
47967;BME280;33733;52.456;13.620;2024-02-15T09:07:42;101530.03;;;10.99;83.70
47967;BME280;33733;52.456;13.620;2024-02-15T09:10:10;101522.25;;;11.12;83.39
47967;BME280;33733;52.456;13.620;2024-02-15T09:12:42;101526.63;;;11.27;83.50
47967;BME280;33733;52.456;13.620;2024-02-15T09:15:10;101526.72;;;11.25;83.09
47967;BME280;33733;52.456;13.620;2024-02-15T09:17:41;101525.81;;;11.26;83.39
47967;BME280;33733;52.456;13.620;2024-02-15T09:20:11;101522.31;;;11.40;82.55
47967;BME280;33733;52.456;13.620;2024-02-15T09:22:52;101517.69;;;11.29;83.25
47967;BME280;33733;52.456;13.620;2024-02-15T09:25:20;101522.03;;;11.45;82.88
47967;BME280;33733;52.456;13.620;2024-02-15T09:27:51;101525.81;;;11.41;82.74
47967;BME280;33733;52.456;13.620;2024-02-15T09:30:19;101525.63;;;11.44;82.89
47967;BME280;33733;52.456;13.620;2024-02-15T09:32:46;101515.53;;;11.50;82.78
47967;BME280;33733;52.456;13.620;2024-02-15T09:35:13;101520.72;;;11.52;82.75
47967;BME280;33733;52.456;13.620;2024-02-15T09:37:46;101524.03;;;11.69;82.84
47967;BME280;33733;52.456;13.620;2024-02-15T09:40:17;101519.63;;;11.70;82.18
47967;BME280;33733;52.456;13.620;2024-02-15T09:42:46;101530.16;;;11.56;82.36
47967;BME280;33733;52.456;13.620;2024-02-15T09:45:14;101528.84;;;11.63;82.89
47967;BME280;33733;52.456;13.620;2024-02-15T09:47:43;101528.75;;;11.64;82.30
47967;BME280;33733;52.456;13.620;2024-02-15T09:50:12;101532.22;;;11.51;82.76
47967;BME280;33733;52.456;13.620;2024-02-15T09:52:53;101541.28;;;11.47;82.85
47967;BME280;33733;52.456;13.620;2024-02-15T09:55:22;101548.88;;;11.23;83.31
47967;BME280;33733;52.456;13.620;2024-02-15T09:57:51;101539.28;;;11.36;83.37
47967;BME280;33733;52.456;13.620;2024-02-15T10:00:18;101545.97;;;11.27;83.41
47967;BME280;33733;52.456;13.620;2024-02-15T10:02:52;101546.81;;;11.28;83.53
47967;BME280;33733;52.456;13.620;2024-02-15T10:05:20;101565.41;;;11.26;83.64
47967;BME280;33733;52.456;13.620;2024-02-15T10:07:48;101553.81;;;11.29;83.61
47967;BME280;33733;52.456;13.620;2024-02-15T10:12:43;101548.25;;;11.34;83.26
47967;BME280;33733;52.456;13.620;2024-02-15T10:15:26;101551.28;;;11.56;83.47
47967;BME280;33733;52.456;13.620;2024-02-15T10:17:58;101554.66;;;11.29;83.51
47967;BME280;33733;52.456;13.620;2024-02-15T10:20:26;101547.06;;;11.53;83.25
47967;BME280;33733;52.456;13.620;2024-02-15T10:25:27;101546.94;;;11.55;82.30
47967;BME280;33733;52.456;13.620;2024-02-15T10:28:21;101549.03;;;11.64;82.59
47967;BME280;33733;52.456;13.620;2024-02-15T10:30:51;101545.81;;;11.59;82.59
47967;BME280;33733;52.456;13.620;2024-02-15T10:33:26;101548.09;;;11.65;82.32
47967;BME280;33733;52.456;13.620;2024-02-15T10:38:43;101537.94;;;11.73;82.11
47967;BME280;33733;52.456;13.620;2024-02-15T10:41:10;101538.91;;;11.86;82.16
47967;BME280;33733;52.456;13.620;2024-02-15T10:43:39;101538.19;;;11.68;81.89
47967;BME280;33733;52.456;13.620;2024-02-15T10:46:12;101536.47;;;11.67;82.58
47967;BME280;33733;52.456;13.620;2024-02-15T10:48:39;101533.31;;;11.76;82.49
47967;BME280;33733;52.456;13.620;2024-02-15T10:51:10;101533.13;;;11.80;82.31
47967;BME280;33733;52.456;13.620;2024-02-15T10:53:45;101529.50;;;11.95;81.89
47967;BME280;33733;52.456;13.620;2024-02-15T10:56:18;101533.38;;;12.03;81.53
47967;BME280;33733;52.456;13.620;2024-02-15T10:58:50;101534.63;;;11.98;81.56
47967;BME280;33733;52.456;13.620;2024-02-15T11:01:18;101528.22;;;12.02;81.72
47967;BME280;33733;52.456;13.620;2024-02-15T11:03:58;101525.34;;;12.19;81.09
47967;BME280;33733;52.456;13.620;2024-02-15T11:06:27;101535.09;;;12.04;81.41
47967;BME280;33733;52.456;13.620;2024-02-15T11:08:56;101530.63;;;12.19;81.39
47967;BME280;33733;52.456;13.620;2024-02-15T11:11:25;101527.81;;;12.22;81.64
47967;BME280;33733;52.456;13.620;2024-02-15T11:16:56;101528.19;;;12.43;80.86
47967;BME280;33733;52.456;13.620;2024-02-15T11:19:40;101526.91;;;12.36;80.96
47967;BME280;33733;52.456;13.620;2024-02-15T11:22:11;101527.53;;;12.53;80.67
47967;BME280;33733;52.456;13.620;2024-02-15T11:24:49;101522.38;;;12.64;80.37
47967;BME280;33733;52.456;13.620;2024-02-15T11:27:25;101517.94;;;12.65;79.60
47967;BME280;33733;52.456;13.620;2024-02-15T11:30:00;101519.03;;;12.75;79.40
47967;BME280;33733;52.456;13.620;2024-02-15T11:32:47;101516.16;;;12.78;79.14
47967;BME280;33733;52.456;13.620;2024-02-15T11:35:24;101514.28;;;12.80;79.61
47967;BME280;33733;52.456;13.620;2024-02-15T11:37:54;101520.72;;;12.76;79.65
47967;BME280;33733;52.456;13.620;2024-02-15T11:46:13;101508.91;;;12.82;79.71
47967;BME280;33733;52.456;13.620;2024-02-15T11:48:40;101506.38;;;12.93;79.50
47967;BME280;33733;52.456;13.620;2024-02-15T11:51:08;101500.84;;;12.83;79.48
47967;BME280;33733;52.456;13.620;2024-02-15T11:53:38;101505.22;;;12.97;78.81
47967;BME280;33733;52.456;13.620;2024-02-15T11:56:07;101519.19;;;12.99;78.96
47967;BME280;33733;52.456;13.620;2024-02-15T11:58:37;101505.34;;;13.08;78.76
47967;BME280;33733;52.456;13.620;2024-02-15T12:01:19;101512.91;;;12.87;78.88
47967;BME280;33733;52.456;13.620;2024-02-15T12:04:05;101506.53;;;12.77;79.05
47967;BME280;33733;52.456;13.620;2024-02-15T12:06:58;101513.22;;;12.83;79.25
47967;BME280;33733;52.456;13.620;2024-02-15T12:09:44;101512.47;;;12.81;79.25
47967;BME280;33733;52.456;13.620;2024-02-15T12:12:33;101517.47;;;12.85;79.35
47967;BME280;33733;52.456;13.620;2024-02-15T12:15:18;101506.03;;;12.85;79.21
47967;BME280;33733;52.456;13.620;2024-02-15T12:18:15;101498.94;;;12.85;79.12
47967;BME280;33733;52.456;13.620;2024-02-15T12:21:02;101501.13;;;12.79;78.93
47967;BME280;33733;52.456;13.620;2024-02-15T12:23:29;101497.66;;;12.91;78.86
47967;BME280;33733;52.456;13.620;2024-02-15T12:26:01;101499.34;;;12.79;79.21
47967;BME280;33733;52.456;13.620;2024-02-15T12:28:33;101499.91;;;12.97;78.74
47967;BME280;33733;52.456;13.620;2024-02-15T12:31:04;101503.59;;;12.94;78.77
47967;BME280;33733;52.456;13.620;2024-02-15T12:33:33;101506.16;;;12.96;78.61
47967;BME280;33733;52.456;13.620;2024-02-15T12:36:05;101499.72;;;13.00;78.67
47967;BME280;33733;52.456;13.620;2024-02-15T12:38:34;101493.88;;;12.95;78.69
47967;BME280;33733;52.456;13.620;2024-02-15T12:41:18;101479.78;;;12.94;79.05
47967;BME280;33733;52.456;13.620;2024-02-15T12:43:46;101479.25;;;13.02;78.84
47967;BME280;33733;52.456;13.620;2024-02-15T12:46:18;101473.69;;;13.19;78.92
47967;BME280;33733;52.456;13.620;2024-02-15T12:48:45;101472.53;;;13.10;78.16
47967;BME280;33733;52.456;13.620;2024-02-15T12:51:14;101466.19;;;13.13;78.54
47967;BME280;33733;52.456;13.620;2024-02-15T12:53:42;101462.56;;;13.27;77.87
47967;BME280;33733;52.456;13.620;2024-02-15T12:56:09;101454.00;;;13.36;77.66
47967;BME280;33733;52.456;13.620;2024-02-15T12:58:37;101458.03;;;13.41;77.86
47967;BME280;33733;52.456;13.620;2024-02-15T13:01:06;101458.44;;;13.48;77.82
47967;BME280;33733;52.456;13.620;2024-02-15T13:03:34;101451.84;;;13.66;76.95
47967;BME280;33733;52.456;13.620;2024-02-15T13:06:02;101463.28;;;13.79;76.87
47967;BME280;33733;52.456;13.620;2024-02-15T13:08:29;101456.75;;;13.96;76.06
47967;BME280;33733;52.456;13.620;2024-02-15T13:10:58;101453.31;;;14.06;75.60
47967;BME280;33733;52.456;13.620;2024-02-15T13:13:26;101454.28;;;14.05;75.54
47967;BME280;33733;52.456;13.620;2024-02-15T13:15:54;101460.34;;;14.07;75.54
47967;BME280;33733;52.456;13.620;2024-02-15T13:18:21;101454.75;;;13.99;74.89
47967;BME280;33733;52.456;13.620;2024-02-15T13:20:49;101447.28;;;13.68;75.43